createdAt,value
2022-10-09T00:02:00.445Z,78.86
2022-10-09T00:04:30.550Z,79.54
2022-10-09T00:07:00.629Z,79.02
2022-10-09T00:09:30.806Z,79.21
2022-10-09T00:12:00.895Z,79.24
2022-10-09T00:14:31.128Z,79.46
2022-10-09T00:17:01.301Z,79.36
2022-10-09T00:19:31.510Z,77.77
2022-10-09T00:22:01.681Z,78.97
2022-10-09T00:24:31.867Z,78.70
2022-10-09T00:30:43.023Z,78.46
2022-10-09T00:33:13.315Z,78.81
2022-10-09T00:35:43.841Z,78.64
2022-10-09T00:38:14.551Z,78.99
2022-10-09T00:40:44.673Z,78.83
2022-10-09T00:43:36.900Z,79.71
2022-10-09T00:46:16.085Z,78.64
2022-10-09T00:48:50.745Z,79.22
2022-10-09T00:51:20.920Z,79.28
2022-10-09T00:53:51.469Z,78.84
2022-10-09T00:56:21.963Z,77.94
2022-10-09T00:58:55.504Z,78.40
2022-10-09T01:01:25.809Z,79.00
2022-10-09T01:03:55.995Z,78.74
2022-10-09T01:07:03.083Z,79.93
2022-10-09T01:09:45.103Z,78.82
2022-10-09T01:12:29.505Z,78.82
2022-10-09T01:15:19.838Z,78.46
2022-10-09T01:17:59.705Z,78.44
2022-10-09T01:20:51.030Z,79.34
2022-10-09T01:23:39.901Z,78.67
2022-10-09T01:26:34.249Z,78.26
2022-10-09T01:29:10.777Z,78.40
2022-10-09T01:31:45.100Z,78.47
2022-10-09T01:34:18.658Z,78.34
2022-10-09T01:36:50.502Z,78.35
2022-10-09T01:39:24.086Z,78.27
2022-10-09T01:41:55.619Z,78.17
2022-10-09T01:44:31.062Z,77.71
2022-10-09T01:47:01.757Z,77.70
2022-10-09T01:50:02.523Z,77.83
2022-10-09T01:52:49.173Z,77.36
2022-10-09T01:55:27.729Z,78.29
2022-10-09T01:58:23.716Z,78.85
2022-10-09T02:01:18.289Z,78.59
2022-10-09T02:03:52.384Z,77.80
2022-10-09T02:06:23.793Z,77.55
2022-10-09T02:08:55.577Z,76.95
2022-10-09T02:11:30.567Z,77.64
2022-10-09T02:14:00.675Z,77.53
2022-10-09T02:16:40.011Z,77.15
2022-10-09T02:19:49.025Z,78.09
2022-10-09T02:22:24.269Z,77.28
2022-10-09T02:24:55.510Z,76.51
2022-10-09T02:27:26.920Z,76.78
2022-10-09T02:29:59.145Z,77.25
2022-10-09T02:32:29.613Z,76.41
2022-10-09T02:34:59.857Z,77.19
2022-10-09T02:37:29.975Z,77.51
2022-10-09T02:40:00.187Z,76.92
2022-10-09T02:42:30.329Z,77.04
2022-10-09T02:45:00.462Z,77.33
2022-10-09T02:47:30.563Z,77.03
2022-10-09T02:50:00.747Z,76.85
2022-10-09T02:52:30.893Z,76.69
2022-10-09T02:55:00.977Z,76.81
2022-10-09T02:57:31.431Z,76.70
2022-10-09T03:00:01.577Z,76.88
2022-10-09T03:02:31.785Z,76.57
2022-10-09T03:05:01.975Z,76.98
2022-10-09T03:07:32.117Z,76.94
2022-10-09T03:10:02.342Z,76.55
2022-10-09T03:12:32.432Z,76.38
2022-10-09T03:15:02.659Z,76.19
2022-10-09T03:17:32.821Z,75.79
2022-10-09T03:20:03.307Z,76.13
2022-10-09T03:22:33.916Z,76.49
2022-10-09T03:25:04.316Z,76.42
2022-10-09T03:27:34.474Z,76.48
2022-10-09T03:30:05.161Z,76.17
2022-10-09T03:32:35.381Z,76.09
2022-10-09T03:35:05.943Z,76.60
2022-10-09T03:37:36.025Z,76.44
2022-10-09T03:40:06.588Z,76.44
2022-10-09T03:42:36.669Z,76.19
2022-10-09T03:45:07.252Z,76.42
2022-10-09T03:47:37.441Z,75.98
2022-10-09T03:50:08.129Z,76.62
2022-10-09T03:52:38.402Z,76.47
2022-10-09T03:55:08.995Z,76.96
2022-10-09T03:57:39.194Z,76.67
2022-10-09T04:00:10.709Z,76.68
2022-10-09T04:02:40.870Z,77.14
2022-10-09T04:05:11.080Z,76.92
2022-10-09T04:07:41.281Z,76.70
2022-10-09T04:10:11.766Z,76.47
2022-10-09T04:12:41.906Z,76.43
2022-10-09T04:15:12.118Z,76.82
2022-10-09T04:17:42.253Z,77.04
2022-10-09T04:20:12.527Z,76.78
2022-10-09T04:22:42.749Z,76.79
2022-10-09T04:25:13.033Z,76.51
2022-10-09T04:27:43.153Z,76.60
2022-10-09T04:30:13.493Z,76.31
2022-10-09T04:32:43.591Z,76.46
2022-10-09T04:35:13.753Z,76.11
2022-10-09T04:37:44.051Z,75.86
2022-10-09T04:40:14.170Z,76.30
2022-10-09T04:42:44.266Z,75.74
2022-10-09T04:45:14.412Z,75.84
2022-10-09T04:47:44.466Z,75.58
2022-10-09T04:50:15.506Z,75.37
2022-10-09T04:52:45.862Z,75.27
2022-10-09T04:55:16.153Z,75.88
2022-10-09T04:57:46.372Z,75.63
2022-10-09T05:00:16.784Z,75.87
2022-10-09T05:02:47.344Z,75.20
2022-10-09T05:05:17.710Z,76.19
2022-10-09T05:07:47.820Z,75.93
2022-10-09T05:10:17.972Z,75.46
2022-10-09T05:12:48.187Z,75.82
2022-10-09T05:15:19.753Z,75.11
2022-10-09T05:17:49.964Z,75.73
2022-10-09T05:20:20.053Z,75.65
2022-10-09T05:22:50.505Z,75.22
2022-10-09T05:25:20.778Z,75.67
2022-10-09T05:27:50.914Z,75.63
2022-10-09T05:30:21.054Z,75.15
2022-10-09T05:32:51.428Z,75.54
2022-10-09T05:35:21.928Z,75.55
2022-10-09T05:37:52.029Z,75.55
2022-10-09T05:40:28.344Z,75.53
2022-10-09T05:42:59.312Z,75.52
2022-10-09T05:45:29.396Z,75.60
2022-10-09T05:47:59.547Z,75.21
2022-10-09T05:50:29.666Z,75.88
2022-10-09T05:52:59.954Z,75.74
2022-10-09T05:55:30.118Z,75.74
2022-10-09T05:58:00.340Z,75.07
2022-10-09T06:00:31.710Z,75.35
2022-10-09T06:03:01.863Z,75.49
2022-10-09T06:05:32.087Z,75.92
2022-10-09T06:08:02.269Z,75.80
2022-10-09T06:10:32.744Z,75.88
2022-10-09T06:13:02.962Z,75.87
2022-10-09T06:15:33.105Z,75.40
2022-10-09T06:18:03.402Z,75.75
2022-10-09T06:20:33.567Z,75.73
2022-10-09T06:23:03.738Z,75.72
2022-10-09T06:25:33.923Z,75.81
2022-10-09T06:28:04.074Z,76.15
2022-10-09T06:30:38.593Z,75.75
2022-10-09T06:33:09.143Z,76.12
2022-10-09T06:35:39.434Z,76.26
2022-10-09T06:38:09.680Z,76.53
2022-10-09T06:40:39.849Z,76.79
2022-10-09T06:43:09.990Z,76.86
2022-10-09T06:45:40.155Z,76.59
2022-10-09T06:48:10.315Z,77.04
2022-10-09T06:50:40.424Z,76.63
2022-10-09T06:53:10.635Z,76.56
2022-10-09T06:55:40.778Z,76.93
2022-10-09T06:58:10.918Z,76.93
2022-10-09T07:00:40.963Z,77.07
2022-10-09T07:03:11.367Z,76.95
2022-10-09T07:05:41.906Z,76.72
2022-10-09T07:08:12.035Z,76.38
2022-10-09T07:10:42.202Z,76.91
2022-10-09T07:13:12.358Z,77.24
2022-10-09T07:15:46.729Z,77.17
2022-10-09T07:18:16.927Z,76.95
2022-10-09T07:20:47.111Z,77.59
2022-10-09T07:23:17.165Z,77.54
2022-10-09T07:25:47.390Z,77.68
2022-10-09T07:28:17.606Z,77.43
2022-10-09T07:30:47.765Z,77.50
2022-10-09T07:33:17.827Z,77.52
2022-10-09T07:35:59.405Z,78.10
2022-10-09T07:38:30.179Z,77.61
2022-10-09T07:41:06.207Z,77.98
2022-10-09T07:43:38.382Z,77.76
2022-10-09T07:46:13.361Z,78.10
2022-10-09T07:48:43.731Z,77.68
2022-10-09T07:51:18.487Z,77.65
2022-10-09T07:53:49.038Z,77.72
2022-10-09T07:56:20.355Z,78.00
2022-10-09T07:58:55.657Z,77.60
2022-10-09T08:01:28.324Z,77.02
2022-10-09T08:03:59.961Z,77.59
2022-10-09T08:06:30.902Z,77.66
2022-10-09T08:09:03.077Z,77.57
2022-10-09T08:11:33.522Z,77.48
2022-10-09T08:14:03.719Z,77.41
2022-10-09T08:16:33.862Z,77.54
2022-10-09T08:19:04.782Z,77.49
2022-10-09T08:21:34.921Z,77.00
2022-10-09T08:24:05.320Z,77.21
2022-10-09T08:26:35.489Z,77.77
2022-10-09T08:29:08.826Z,77.49
2022-10-09T08:31:39.301Z,77.25
2022-10-09T08:34:09.486Z,77.19
2022-10-09T08:36:39.794Z,77.14
2022-10-09T08:39:10.271Z,76.58
2022-10-09T08:41:53.582Z,76.00
2022-10-09T08:44:49.153Z,76.15
2022-10-09T08:47:29.002Z,76.20
2022-10-09T08:50:09.131Z,76.81
2022-10-09T08:52:57.995Z,76.64
2022-10-09T08:56:09.451Z,75.87
2022-10-09T08:58:41.480Z,76.12
2022-10-09T09:01:32.022Z,75.73
2022-10-09T09:04:17.145Z,74.98
2022-10-09T09:06:50.341Z,74.92
2022-10-09T09:09:37.471Z,72.69
2022-10-09T09:12:26.220Z,72.22
2022-10-09T09:15:14.391Z,72.84
2022-10-09T09:17:48.698Z,73.16
2022-10-09T09:20:40.167Z,72.57
2022-10-09T09:23:15.502Z,73.07
2022-10-09T09:25:46.423Z,73.81
2022-10-09T09:28:28.513Z,72.78
2022-10-09T09:31:16.553Z,70.65
2022-10-09T09:33:55.472Z,72.31
2022-10-09T09:36:30.935Z,71.58
2022-10-09T09:41:53.243Z,71.54
2022-10-09T09:44:25.810Z,71.60
2022-10-09T09:46:57.192Z,71.29
2022-10-09T09:49:29.441Z,70.64
2022-10-09T09:52:01.322Z,69.77
2022-10-09T09:54:31.598Z,70.07
2022-10-09T09:57:21.656Z,70.18
2022-10-09T09:59:52.044Z,69.77
2022-10-09T10:02:27.005Z,69.57
2022-10-09T10:05:06.709Z,67.17
2022-10-09T10:07:42.461Z,68.33
2022-10-09T10:10:27.581Z,66.56
2022-10-09T10:12:59.523Z,68.77
2022-10-09T10:15:33.410Z,68.20
2022-10-09T10:18:17.445Z,65.17
2022-10-09T10:21:05.194Z,67.53
2022-10-09T10:23:43.416Z,67.38
2022-10-09T10:26:31.157Z,67.78
2022-10-09T10:29:10.719Z,67.51
2022-10-09T10:32:03.007Z,65.54
2022-10-09T10:34:51.224Z,66.01
2022-10-09T10:37:40.773Z,66.17
2022-10-09T10:40:25.726Z,65.86
2022-10-09T10:43:46.758Z,64.93
2022-10-09T10:46:32.025Z,65.90
2022-10-09T10:49:02.212Z,67.17
2022-10-09T10:52:01.455Z,64.22
2022-10-09T10:54:58.936Z,65.97
2022-10-09T10:57:41.060Z,64.10
2022-10-09T11:00:13.782Z,65.23
2022-10-09T11:02:59.527Z,62.52
2022-10-09T11:05:47.854Z,61.67
2022-10-09T11:08:36.446Z,64.81
2022-10-09T11:11:19.085Z,63.38
2022-10-09T11:14:20.228Z,59.45
2022-10-09T11:17:03.613Z,62.88
2022-10-09T11:19:45.855Z,64.54
2022-10-09T11:22:26.227Z,61.98
2022-10-09T11:25:07.207Z,61.81
2022-10-09T11:27:50.589Z,61.92
2022-10-09T11:30:22.159Z,64.08
2022-10-09T11:33:11.031Z,59.84
2022-10-09T11:35:47.045Z,62.71
2022-10-09T11:38:26.888Z,60.96
2022-10-09T11:41:02.679Z,63.36
2022-10-09T11:43:55.313Z,61.85
2022-10-09T11:47:02.012Z,62.63
2022-10-09T11:49:48.381Z,60.87
2022-10-09T11:52:21.467Z,63.51
2022-10-09T11:54:52.887Z,64.08
2022-10-09T11:57:31.473Z,62.68
2022-10-09T12:00:08.270Z,61.92
2022-10-09T12:02:39.085Z,62.57
2022-10-09T12:05:30.273Z,60.68
2022-10-09T12:08:28.901Z,59.78
2022-10-09T12:11:19.800Z,60.36
2022-10-09T12:13:53.615Z,62.27
2022-10-09T12:16:47.195Z,59.33
2022-10-09T12:19:26.064Z,62.28
2022-10-09T12:22:20.467Z,59.03
2022-10-09T12:24:57.689Z,62.33
2022-10-09T12:27:33.759Z,62.37
2022-10-09T12:30:13.392Z,60.08
2022-10-09T12:32:52.824Z,60.07
2022-10-09T12:35:36.022Z,59.36
2022-10-09T12:38:25.512Z,59.76
2022-10-09T12:41:01.541Z,61.30
2022-10-09T12:43:32.868Z,61.83
2022-10-09T12:46:03.209Z,62.13
2022-10-09T12:48:39.708Z,61.36
2022-10-09T12:51:21.784Z,58.39
2022-10-09T12:53:53.536Z,61.55
2022-10-09T12:56:38.381Z,59.23
2022-10-09T12:59:11.582Z,60.39
2022-10-09T13:01:43.576Z,61.64
2022-10-09T13:04:34.282Z,58.77
2022-10-09T13:07:18.799Z,58.31
2022-10-09T13:09:49.448Z,60.54
2022-10-09T13:12:24.264Z,60.15
2022-10-09T13:15:00.297Z,58.94
2022-10-09T13:17:37.044Z,57.14
2022-10-09T13:20:16.186Z,56.42
2022-10-09T13:23:04.199Z,55.58
2022-10-09T13:25:41.365Z,57.45
2022-10-09T13:28:20.197Z,57.86
2022-10-09T13:30:50.742Z,59.27
2022-10-09T13:33:21.006Z,60.06
2022-10-09T13:35:51.129Z,60.17
2022-10-09T13:38:21.177Z,60.03
2022-10-09T13:40:51.698Z,60.46
2022-10-09T13:43:26.230Z,60.39
2022-10-09T13:45:56.598Z,60.75
2022-10-09T13:48:26.833Z,60.94
2022-10-09T13:50:59.343Z,60.85
2022-10-09T13:53:29.566Z,60.63
2022-10-09T13:56:01.060Z,60.84
2022-10-09T13:58:31.826Z,60.82
2022-10-09T14:01:02.143Z,60.53
2022-10-09T14:03:32.247Z,60.76
2022-10-09T14:06:05.845Z,60.88
2022-10-09T14:08:36.007Z,60.40
2022-10-09T14:11:06.301Z,60.53
2022-10-09T14:13:36.472Z,60.73
2022-10-09T14:16:07.576Z,60.65
2022-10-09T14:18:37.795Z,60.80
2022-10-09T14:21:15.348Z,60.78
2022-10-09T14:23:46.265Z,60.53
2022-10-09T14:26:16.342Z,60.63
2022-10-09T14:28:46.655Z,60.51
2022-10-09T14:31:19.620Z,60.27
2022-10-09T14:33:49.792Z,60.36
2022-10-09T14:36:20.686Z,60.65
2022-10-09T14:38:51.478Z,60.44
2022-10-09T14:41:22.311Z,60.81
2022-10-09T14:43:59.572Z,60.17
2022-10-09T14:46:32.051Z,60.56
2022-10-09T14:49:07.542Z,60.48
2022-10-09T14:51:39.519Z,60.57
2022-10-09T14:54:12.174Z,60.79
2022-10-09T14:56:42.654Z,60.66
2022-10-09T14:59:12.972Z,60.78
2022-10-09T15:01:43.147Z,60.48
2022-10-09T15:04:15.325Z,61.05
2022-10-09T15:06:45.714Z,60.94
2022-10-09T15:09:15.809Z,61.04
2022-10-09T15:11:46.005Z,60.82
2022-10-09T15:14:16.141Z,60.96
2022-10-09T15:16:47.120Z,61.17
2022-10-09T15:19:17.502Z,61.17
2022-10-09T15:21:47.670Z,61.26
2022-10-09T15:24:17.775Z,61.26
2022-10-09T15:26:47.836Z,61.11
2022-10-09T15:29:18.000Z,61.13
2022-10-09T15:31:50.175Z,61.61
2022-10-09T15:34:20.442Z,61.51
2022-10-09T15:36:51.200Z,61.58
2022-10-09T15:39:21.424Z,61.61
2022-10-09T15:41:51.663Z,61.54
2022-10-09T15:44:21.818Z,61.57
2022-10-09T15:46:51.949Z,61.60
2022-10-09T15:49:22.274Z,61.68
2022-10-09T15:51:52.475Z,61.67
2022-10-09T15:54:23.577Z,61.76
2022-10-09T15:56:54.806Z,61.61
2022-10-09T15:59:25.883Z,61.63
2022-10-09T16:01:56.014Z,61.31
2022-10-09T16:04:27.083Z,61.24
2022-10-09T16:06:58.343Z,61.09
2022-10-09T16:09:33.433Z,61.00
2022-10-09T16:12:03.970Z,60.92
2022-10-09T16:14:34.047Z,61.09
2022-10-09T16:17:05.560Z,61.12
2022-10-09T16:19:39.148Z,61.14
2022-10-09T16:22:09.349Z,61.05
2022-10-09T16:24:39.477Z,61.12
2022-10-09T16:27:09.688Z,61.36
2022-10-09T16:29:39.818Z,61.25
2022-10-09T16:32:10.168Z,61.45
2022-10-09T16:34:45.912Z,61.60
2022-10-09T16:37:16.566Z,61.63
2022-10-09T16:39:49.475Z,61.76
2022-10-09T16:42:19.845Z,61.82
2022-10-09T16:44:51.632Z,61.67
2022-10-09T16:47:21.821Z,61.67
2022-10-09T16:49:52.169Z,61.95
2022-10-09T16:52:22.334Z,61.94
2022-10-09T16:54:55.865Z,61.83
2022-10-09T16:57:27.285Z,61.99
2022-10-09T16:59:57.481Z,61.50
2022-10-09T17:02:28.912Z,61.90
2022-10-09T17:04:59.143Z,61.90
2022-10-09T17:07:29.651Z,62.14
2022-10-09T17:09:59.902Z,62.04
2022-10-09T17:12:30.946Z,62.25
2022-10-09T17:15:01.129Z,62.08
2022-10-09T17:17:31.363Z,62.14
2022-10-09T17:20:01.779Z,62.13
2022-10-09T17:22:31.900Z,62.23
2022-10-09T17:25:01.975Z,62.25
2022-10-09T17:27:32.122Z,62.66
2022-10-09T17:30:02.230Z,62.60
2022-10-09T17:32:32.328Z,62.27
2022-10-09T17:35:02.579Z,62.27
2022-10-09T17:37:32.696Z,62.38
2022-10-09T17:40:02.900Z,62.40
2022-10-09T17:42:33.088Z,62.96
2022-10-09T17:45:03.394Z,62.85
2022-10-09T17:47:33.638Z,62.65
2022-10-09T17:50:04.024Z,62.93
2022-10-09T17:52:34.118Z,62.82
2022-10-09T17:55:04.519Z,62.76
2022-10-09T17:57:34.664Z,62.88
2022-10-09T18:00:05.836Z,63.26
2022-10-09T18:02:35.945Z,62.96
2022-10-09T18:05:06.860Z,62.89
2022-10-09T18:07:37.027Z,63.33
2022-10-09T18:10:07.663Z,63.17
2022-10-09T18:12:37.774Z,63.19
2022-10-09T18:15:08.550Z,63.24
2022-10-09T18:17:39.000Z,62.73
2022-10-09T18:20:09.389Z,63.15
2022-10-09T18:22:39.600Z,62.88
2022-10-09T18:25:09.786Z,62.99
2022-10-09T18:27:39.982Z,62.91
2022-10-09T18:30:10.782Z,63.23
2022-10-09T18:32:40.879Z,63.18
2022-10-09T18:35:10.968Z,63.10
2022-10-09T18:37:41.489Z,63.12
2022-10-09T18:40:11.793Z,62.86
2022-10-09T18:42:41.930Z,62.86
2022-10-09T18:45:14.832Z,63.16
2022-10-09T18:47:45.214Z,62.99
2022-10-09T18:50:16.305Z,63.03
2022-10-09T18:52:46.924Z,63.36
2022-10-09T18:55:19.010Z,62.91
2022-10-09T18:57:49.158Z,62.91
2022-10-09T19:00:19.371Z,63.22
2022-10-09T19:02:49.499Z,63.30
2022-10-09T19:05:19.683Z,62.92
2022-10-09T19:07:49.992Z,63.04
2022-10-09T19:10:20.246Z,63.10
2022-10-09T19:12:52.782Z,63.22
2022-10-09T19:15:22.950Z,63.41
2022-10-09T19:17:53.308Z,63.09
2022-10-09T19:20:23.638Z,63.12
2022-10-09T19:22:53.791Z,63.58
2022-10-09T19:25:24.710Z,63.22
2022-10-09T19:27:54.958Z,63.24
2022-10-09T19:30:25.152Z,63.18
2022-10-09T19:32:55.176Z,63.41
2022-10-09T19:35:25.326Z,62.98
2022-10-09T19:37:55.465Z,63.11
2022-10-09T19:40:26.160Z,63.11
2022-10-09T19:42:56.310Z,63.22
2022-10-09T19:45:26.442Z,63.07
2022-10-09T19:47:56.724Z,63.42
2022-10-09T19:50:26.996Z,63.23
2022-10-09T19:52:57.805Z,63.60
2022-10-09T19:55:30.893Z,63.65
2022-10-09T19:58:01.328Z,63.62
2022-10-09T20:00:31.486Z,63.73
2022-10-09T20:03:01.638Z,63.58
2022-10-09T20:05:32.606Z,63.69
2022-10-09T20:08:02.777Z,63.70
2022-10-09T20:10:35.851Z,64.08
2022-10-09T20:13:06.373Z,63.53
2022-10-09T20:15:36.487Z,63.90
2022-10-09T20:18:06.550Z,63.43
2022-10-09T20:20:37.496Z,63.88
2022-10-09T20:23:07.732Z,63.70
2022-10-09T20:25:37.841Z,63.89
2022-10-09T20:28:08.000Z,63.41
2022-10-09T20:30:38.083Z,63.65
2022-10-09T20:33:09.076Z,63.68
2022-10-09T20:35:43.668Z,63.37
2022-10-09T20:38:14.490Z,63.58
2022-10-09T20:40:45.858Z,63.24
2022-10-09T20:43:16.021Z,63.50
2022-10-09T20:45:46.573Z,63.43
2022-10-09T20:48:16.749Z,63.43
2022-10-09T20:50:46.887Z,63.42
2022-10-09T20:53:17.118Z,63.24
2022-10-09T20:55:47.689Z,63.19
2022-10-09T20:58:17.865Z,63.45
2022-10-09T21:00:48.137Z,63.24
2022-10-09T21:03:18.214Z,63.11
2022-10-09T21:05:48.407Z,63.23
2022-10-09T21:08:18.552Z,63.45
2022-10-09T21:10:50.314Z,63.09
2022-10-09T21:13:20.487Z,62.98
2022-10-09T21:15:51.144Z,63.47
2022-10-09T21:18:21.315Z,63.51
2022-10-09T21:20:51.435Z,63.32
2022-10-09T21:23:21.679Z,63.44
2022-10-09T21:25:53.633Z,63.67
2022-10-09T21:28:24.316Z,63.63
2022-10-09T21:30:54.755Z,63.48
2022-10-09T21:33:24.868Z,63.77
2022-10-09T21:35:55.607Z,63.38
2022-10-09T21:38:25.777Z,63.87
2022-10-09T21:40:55.962Z,63.54
2022-10-09T21:43:26.153Z,63.72
2022-10-09T21:45:56.689Z,63.68
2022-10-09T21:48:26.998Z,63.83
2022-10-09T21:50:57.648Z,63.59
2022-10-09T21:53:27.822Z,64.04
2022-10-09T21:55:57.985Z,63.72
2022-10-09T21:58:28.114Z,63.80
2022-10-09T22:01:00.581Z,63.80
2022-10-09T22:03:32.987Z,63.61
2022-10-09T22:06:09.637Z,63.38
2022-10-09T22:08:40.989Z,63.70
2022-10-09T22:11:11.959Z,63.78
2022-10-09T22:13:42.073Z,63.56
2022-10-09T22:16:14.645Z,63.56
2022-10-09T22:18:44.806Z,63.26
2022-10-09T22:21:15.846Z,63.40
2022-10-09T22:23:46.129Z,63.50
2022-10-09T22:26:19.678Z,63.22
2022-10-09T22:28:50.537Z,63.49
2022-10-09T22:31:23.806Z,63.62
2022-10-09T22:34:00.123Z,63.50
2022-10-09T22:36:32.604Z,63.22
2022-10-09T22:39:05.901Z,63.26
2022-10-09T22:41:36.677Z,63.26
2022-10-09T22:44:08.746Z,63.25
2022-10-09T22:46:41.402Z,63.42
2022-10-09T22:49:14.490Z,63.52
2022-10-09T22:51:45.497Z,63.67
2022-10-09T22:54:15.716Z,63.93
2022-10-09T22:56:46.460Z,63.79
2022-10-09T22:59:18.305Z,63.61
2022-10-09T23:01:54.973Z,63.44
2022-10-09T23:04:25.557Z,63.29
2022-10-09T23:06:57.652Z,63.43
2022-10-09T23:09:30.610Z,63.35
2022-10-09T23:12:00.768Z,63.73
2022-10-09T23:14:31.045Z,63.68
2022-10-09T23:17:01.110Z,63.47
2022-10-09T23:19:31.251Z,63.79
2022-10-09T23:22:01.644Z,63.95
2022-10-09T23:24:31.830Z,63.97
2022-10-09T23:27:01.900Z,63.84
2022-10-09T23:29:32.039Z,64.28
2022-10-09T23:32:02.181Z,64.04
2022-10-09T23:34:32.284Z,64.24
2022-10-09T23:37:02.432Z,64.26
2022-10-09T23:39:32.514Z,64.06
2022-10-09T23:42:02.680Z,64.41
2022-10-09T23:44:32.758Z,64.23
2022-10-09T23:47:02.929Z,64.35
2022-10-09T23:49:32.996Z,64.53
2022-10-09T23:52:03.475Z,64.55
2022-10-09T23:54:33.547Z,64.74
2022-10-09T23:57:03.801Z,64.61
2022-10-09T23:59:33.898Z,64.53
